createdAt,value
2019-05-25T00:02:13.269Z,10.70
2019-05-25T00:04:53.556Z,10.60
2019-05-25T00:07:29.876Z,10.60
2019-05-25T00:10:01.344Z,10.60
2019-05-25T00:12:32.757Z,10.60
2019-05-25T00:15:05.319Z,10.60
2019-05-25T00:17:36.608Z,10.60
2019-05-25T00:20:07.830Z,10.60
2019-05-25T00:22:38.858Z,10.60
2019-05-25T00:25:10.028Z,10.30
2019-05-25T00:27:41.075Z,10.20
2019-05-25T00:30:12.145Z,10.20
2019-05-25T00:32:43.129Z,10.30
2019-05-25T00:35:14.357Z,10.30
2019-05-25T00:37:45.457Z,10.10
2019-05-25T00:40:16.919Z,10.00
2019-05-25T00:42:47.892Z,9.80
2019-05-25T00:45:18.922Z,9.80
2019-05-25T00:47:49.894Z,9.80
2019-05-25T00:50:21.199Z,9.80
2019-05-25T00:52:52.192Z,9.80
2019-05-25T00:55:23.130Z,9.70
2019-05-25T00:57:54.505Z,9.70
2019-05-25T01:00:25.566Z,9.70
2019-05-25T01:02:56.567Z,9.80
2019-05-25T01:05:27.493Z,9.80
2019-05-25T01:07:58.462Z,9.90
2019-05-25T01:10:29.403Z,9.80
2019-05-25T01:13:00.364Z,9.80
2019-05-25T01:15:31.393Z,9.70
2019-05-25T01:18:02.362Z,9.60
2019-05-25T01:20:33.340Z,9.50
2019-05-25T01:23:04.383Z,9.50
2019-05-25T01:25:35.812Z,9.40
2019-05-25T01:28:06.773Z,9.40
2019-05-25T01:30:37.808Z,9.30
2019-05-25T01:33:08.781Z,9.30
2019-05-25T01:35:41.246Z,9.20
2019-05-25T01:38:12.267Z,9.20
2019-05-25T01:40:43.207Z,9.30
2019-05-25T01:43:14.177Z,9.30
2019-05-25T01:45:45.123Z,9.30
2019-05-25T01:48:17.114Z,9.30
2019-05-25T01:50:48.128Z,9.30
2019-05-25T01:53:19.094Z,9.40
2019-05-25T01:55:50.041Z,9.40
2019-05-25T01:58:22.226Z,9.30
2019-05-25T02:00:53.212Z,9.30
2019-05-25T02:03:24.289Z,9.20
2019-05-25T02:05:55.478Z,9.20
2019-05-25T02:08:26.472Z,9.20
2019-05-25T02:10:57.433Z,9.10
2019-05-25T02:13:29.164Z,9.10
2019-05-25T02:16:00.163Z,9.10
2019-05-25T02:18:31.136Z,9.10
2019-05-25T02:21:02.083Z,9.10
2019-05-25T02:23:33.049Z,9.10
2019-05-25T02:26:03.987Z,9.10
2019-05-25T02:28:34.975Z,9.10
2019-05-25T02:31:06.914Z,9.10
2019-05-25T02:33:37.880Z,9.10
2019-05-25T02:36:08.857Z,9.10
2019-05-25T02:38:39.920Z,9.20
2019-05-25T02:41:11.058Z,9.20
2019-05-25T02:43:42.250Z,9.10
2019-05-25T02:46:13.290Z,9.10
2019-05-25T02:48:44.219Z,9.00
2019-05-25T02:51:15.311Z,9.00
2019-05-25T02:53:46.460Z,8.90
2019-05-25T02:56:17.481Z,8.90
2019-05-25T02:58:48.416Z,8.90
2019-05-25T03:01:19.623Z,8.90
2019-05-25T03:03:50.660Z,9.00
2019-05-25T03:06:22.922Z,9.10
2019-05-25T03:08:56.768Z,9.10
2019-05-25T03:11:29.338Z,9.00
2019-05-25T03:14:00.399Z,9.00
2019-05-25T03:16:31.422Z,9.00
2019-05-25T03:19:02.362Z,9.10
2019-05-25T03:21:33.389Z,9.00
2019-05-25T03:24:04.383Z,9.00
2019-05-25T03:26:35.366Z,8.90
2019-05-25T03:29:06.392Z,9.00
2019-05-25T03:31:37.363Z,9.00
2019-05-25T03:34:09.393Z,9.00
2019-05-25T03:36:40.364Z,9.00
2019-05-25T03:39:11.303Z,9.00
2019-05-25T03:41:42.270Z,9.00
2019-05-25T03:44:13.205Z,9.00
2019-05-25T03:46:45.283Z,8.80
2019-05-25T03:49:16.223Z,8.80
2019-05-25T03:51:47.274Z,8.80
2019-05-25T03:54:18.212Z,9.10
2019-05-25T03:56:49.180Z,9.00
2019-05-25T03:59:21.216Z,9.00
2019-05-25T04:01:52.191Z,8.90
2019-05-25T04:04:23.064Z,8.80
2019-05-25T04:06:54.138Z,8.70
2019-05-25T04:09:25.088Z,8.60
2019-05-25T04:11:56.152Z,8.60
2019-05-25T04:14:27.093Z,8.60
2019-05-25T04:16:58.097Z,8.70
2019-05-25T04:19:29.138Z,8.90
2019-05-25T04:22:00.104Z,8.90
2019-05-25T04:24:31.059Z,8.90
2019-05-25T04:27:02.087Z,8.90
2019-05-25T04:29:33.026Z,8.90
2019-05-25T04:32:04.135Z,9.10
2019-05-25T04:34:35.071Z,9.40
2019-05-25T04:37:05.973Z,9.70
2019-05-25T04:39:36.916Z,10.00
2019-05-25T04:42:08.893Z,10.40
2019-05-25T04:44:40.847Z,10.30
2019-05-25T04:47:26.084Z,10.40
2019-05-25T04:49:44.490Z,10.70
2019-05-25T04:52:16.539Z,10.90
2019-05-25T04:54:47.477Z,11.10
2019-05-25T04:57:18.679Z,11.10
2019-05-25T04:59:49.671Z,11.10
2019-05-25T05:02:20.648Z,11.10
2019-05-25T05:04:51.594Z,11.10
2019-05-25T05:07:22.572Z,11.10
2019-05-25T05:10:02.058Z,11.20
2019-05-25T05:12:26.307Z,11.40
2019-05-25T05:14:58.253Z,11.50
2019-05-25T05:17:30.219Z,11.50
2019-05-25T05:20:01.171Z,11.60
2019-05-25T05:22:32.144Z,11.80
2019-05-25T05:25:03.143Z,11.90
2019-05-25T05:27:34.181Z,12.00
2019-05-25T05:30:07.444Z,12.00
2019-05-25T05:32:38.425Z,12.30
2019-05-25T05:35:09.765Z,12.30
2019-05-25T05:37:42.636Z,12.40
2019-05-25T05:40:14.107Z,12.60
2019-05-25T05:42:47.443Z,12.90
2019-05-25T05:45:18.444Z,13.10
2019-05-25T05:47:51.259Z,13.30
2019-05-25T05:50:22.598Z,13.50
2019-05-25T05:52:55.126Z,13.50
2019-05-25T05:55:33.136Z,13.60
2019-05-25T05:58:04.110Z,13.70
2019-05-25T06:00:35.051Z,13.80
2019-05-25T06:03:06.150Z,13.90
2019-05-25T06:05:37.092Z,14.10
2019-05-25T06:08:08.073Z,14.40
2019-05-25T06:10:39.031Z,14.50
2019-05-25T06:13:10.004Z,14.60
2019-05-25T06:15:40.981Z,14.80
2019-05-25T06:18:12.121Z,14.80
2019-05-25T06:20:43.096Z,14.90
2019-05-25T06:23:15.048Z,15.00
2019-05-25T06:25:46.029Z,15.10
2019-05-25T06:28:20.122Z,15.20
2019-05-25T06:30:49.685Z,15.50
2019-05-25T06:33:20.684Z,15.60
2019-05-25T06:35:51.659Z,15.60
2019-05-25T06:38:22.634Z,15.80
2019-05-25T06:40:54.677Z,15.90
2019-05-25T06:43:25.666Z,16.00
2019-05-25T06:45:56.700Z,16.20
2019-05-25T06:48:27.675Z,16.50
2019-05-25T06:50:58.641Z,16.50
2019-05-25T06:53:29.591Z,16.60
2019-05-25T06:56:00.580Z,16.90
2019-05-25T06:58:32.528Z,17.10
2019-05-25T07:01:03.521Z,17.40
2019-05-25T07:03:34.552Z,17.70
2019-05-25T07:06:05.696Z,17.80
2019-05-25T07:08:36.641Z,18.00
2019-05-25T07:11:07.617Z,18.20
2019-05-25T07:13:38.613Z,18.50
2019-05-25T07:16:09.566Z,18.70
2019-05-25T07:18:40.553Z,18.90
2019-05-25T07:21:11.489Z,18.90
2019-05-25T07:23:42.467Z,19.00
2019-05-25T07:26:13.427Z,19.20
2019-05-25T07:28:44.457Z,19.50
2019-05-25T07:31:15.437Z,19.70
2019-05-25T07:33:46.407Z,19.70
2019-05-25T07:36:17.451Z,19.80
2019-05-25T07:38:48.393Z,20.10
2019-05-25T07:41:19.396Z,20.00
2019-05-25T07:43:50.364Z,20.00
2019-05-25T07:46:21.372Z,20.10
2019-05-25T07:48:52.383Z,20.30
2019-05-25T07:51:23.376Z,20.50
2019-05-25T07:53:54.384Z,20.40
2019-05-25T07:56:26.359Z,20.00
2019-05-25T07:58:57.305Z,20.00
2019-05-25T08:01:28.314Z,20.00
2019-05-25T08:03:59.295Z,20.20
2019-05-25T08:06:30.327Z,20.30
2019-05-25T08:09:01.280Z,20.30
2019-05-25T08:11:33.436Z,20.40
2019-05-25T08:14:04.478Z,20.10
2019-05-25T08:16:35.473Z,20.10
2019-05-25T08:19:06.439Z,20.30
2019-05-25T08:21:37.489Z,20.50
2019-05-25T08:24:08.745Z,20.50
2019-05-25T08:26:39.724Z,20.50
2019-05-25T08:29:10.777Z,20.60
2019-05-25T08:31:41.755Z,20.90
2019-05-25T08:34:12.704Z,21.10
2019-05-25T08:36:43.789Z,21.30
2019-05-25T08:39:15.733Z,21.40
2019-05-25T08:41:46.710Z,21.50
2019-05-25T08:44:17.677Z,21.70
2019-05-25T08:46:48.655Z,21.70
2019-05-25T08:49:19.599Z,21.90
2019-05-25T08:51:50.567Z,22.20
2019-05-25T08:54:21.516Z,22.20
2019-05-25T08:56:52.548Z,22.10
2019-05-25T08:59:23.556Z,22.20
2019-05-25T09:01:54.532Z,22.50
2019-05-25T09:04:25.766Z,23.00
2019-05-25T09:06:56.927Z,23.30
2019-05-25T09:09:27.877Z,23.70
2019-05-25T09:11:58.855Z,24.00
2019-05-25T09:14:29.850Z,24.30
2019-05-25T09:17:01.963Z,24.70
2019-05-25T09:19:32.933Z,25.00
2019-05-25T09:22:04.265Z,25.40
2019-05-25T09:24:35.279Z,25.50
2019-05-25T09:27:06.875Z,25.70
2019-05-25T09:29:38.210Z,26.20
2019-05-25T09:32:09.200Z,26.60
2019-05-25T09:34:40.142Z,27.10
2019-05-25T09:37:11.113Z,27.30
2019-05-25T09:39:42.291Z,27.40
2019-05-25T09:42:13.502Z,27.30
2019-05-25T09:44:44.992Z,27.60
2019-05-25T09:47:16.020Z,28.30
2019-05-25T09:49:47.465Z,29.40
2019-05-25T09:52:18.533Z,29.90
2019-05-25T09:54:51.758Z,30.80
2019-05-25T09:57:23.136Z,30.80
2019-05-25T09:59:54.078Z,31.40
2019-05-25T10:02:25.049Z,31.60
2019-05-25T10:04:55.988Z,31.50
2019-05-25T10:07:26.971Z,31.50
2019-05-25T10:09:57.933Z,31.20
2019-05-25T10:12:28.910Z,30.80
2019-05-25T10:14:59.852Z,30.60
2019-05-25T10:17:30.832Z,30.30
2019-05-25T10:20:01.775Z,30.20
2019-05-25T10:22:32.817Z,29.20
2019-05-25T10:25:05.422Z,28.50
2019-05-25T10:27:36.395Z,28.40
2019-05-25T10:30:09.100Z,28.30
2019-05-25T10:32:40.082Z,27.90
2019-05-25T10:35:11.030Z,28.20
2019-05-25T10:37:42.012Z,28.60
2019-05-25T10:40:14.350Z,28.80
2019-05-25T10:42:45.330Z,28.60
2019-05-25T10:45:16.803Z,29.00
2019-05-25T10:47:47.773Z,29.00
2019-05-25T10:50:19.250Z,29.40
2019-05-25T10:52:50.223Z,29.40
2019-05-25T10:55:21.175Z,29.40
2019-05-25T10:57:52.143Z,29.00
2019-05-25T11:00:23.613Z,28.70
2019-05-25T11:02:54.697Z,28.50
2019-05-25T11:05:26.017Z,28.10
2019-05-25T11:07:56.990Z,27.80
2019-05-25T11:10:28.032Z,27.80
2019-05-25T11:12:59.003Z,27.80
2019-05-25T11:15:29.967Z,27.90
2019-05-25T11:18:00.943Z,28.50
2019-05-25T11:20:31.913Z,28.50
2019-05-25T11:23:04.026Z,28.70
2019-05-25T11:25:38.393Z,29.10
2019-05-25T11:28:09.397Z,29.50
2019-05-25T11:30:40.416Z,29.80
2019-05-25T11:33:11.657Z,30.10
2019-05-25T11:35:44.324Z,30.90
2019-05-25T11:38:15.269Z,31.00
2019-05-25T11:40:46.241Z,31.60
2019-05-25T11:43:17.183Z,32.00
2019-05-25T11:45:48.164Z,32.20
2019-05-25T11:48:19.142Z,31.70
2019-05-25T11:50:50.112Z,31.00
2019-05-25T11:53:21.053Z,30.40
2019-05-25T11:55:52.212Z,30.50
2019-05-25T11:58:23.179Z,30.50
2019-05-25T12:00:54.369Z,31.20
2019-05-25T12:03:25.383Z,31.60
2019-05-25T12:05:56.370Z,32.10
2019-05-25T12:08:27.324Z,32.60
2019-05-25T12:10:58.331Z,32.60
2019-05-25T12:13:32.058Z,32.70
2019-05-25T12:16:02.045Z,33.60
2019-05-25T12:18:33.002Z,33.70
2019-05-25T12:21:03.977Z,33.90
2019-05-25T12:23:34.981Z,33.70
2019-05-25T12:26:05.967Z,33.40
2019-05-25T12:28:36.918Z,31.40
2019-05-25T12:31:07.891Z,30.00
2019-05-25T12:33:38.849Z,29.80
2019-05-25T12:36:11.692Z,29.90
2019-05-25T12:38:42.706Z,30.40
2019-05-25T12:41:13.729Z,30.70
2019-05-25T12:43:44.669Z,29.80
2019-05-25T12:46:15.694Z,29.20
2019-05-25T12:48:46.749Z,28.80
2019-05-25T12:51:18.076Z,28.70
2019-05-25T12:53:50.141Z,28.20
2019-05-25T12:56:21.288Z,27.90
2019-05-25T12:58:52.436Z,27.90
2019-05-25T13:01:23.463Z,28.10
2019-05-25T13:03:54.403Z,28.30
2019-05-25T13:06:25.374Z,28.60
2019-05-25T13:08:56.457Z,28.80
2019-05-25T13:11:27.522Z,28.50
2019-05-25T13:14:06.343Z,28.50
2019-05-25T13:16:31.247Z,28.40
2019-05-25T13:19:02.200Z,28.60
2019-05-25T13:21:33.170Z,28.40
2019-05-25T13:24:04.119Z,28.50
2019-05-25T13:26:35.094Z,28.10
2019-05-25T13:29:06.345Z,27.60
2019-05-25T13:31:37.249Z,27.10
2019-05-25T13:34:08.404Z,27.00
2019-05-25T13:36:39.423Z,26.80
2019-05-25T13:39:10.365Z,26.70
2019-05-25T13:41:41.347Z,26.70
2019-05-25T13:44:12.290Z,26.40
2019-05-25T13:46:43.264Z,26.20
2019-05-25T13:49:14.214Z,26.20
2019-05-25T13:51:45.191Z,26.20
2019-05-25T13:54:16.133Z,26.00
2019-05-25T13:56:47.104Z,25.80
2019-05-25T13:59:18.047Z,25.30
2019-05-25T14:01:49.163Z,25.20
2019-05-25T14:04:20.102Z,25.10
2019-05-25T14:06:51.073Z,24.70
2019-05-25T14:09:22.011Z,24.60
2019-05-25T14:11:52.984Z,24.40
2019-05-25T14:14:24.657Z,24.40
2019-05-25T14:16:55.786Z,24.20
2019-05-25T14:19:26.757Z,24.10
2019-05-25T14:21:57.728Z,23.80
2019-05-25T14:24:28.702Z,23.70
2019-05-25T14:26:59.842Z,23.50
2019-05-25T14:29:30.823Z,23.50
2019-05-25T14:32:01.768Z,23.50
2019-05-25T14:34:32.735Z,23.40
2019-05-25T14:37:03.682Z,23.20
2019-05-25T14:39:34.655Z,23.00
2019-05-25T14:42:05.701Z,22.50
2019-05-25T14:44:36.745Z,22.40
2019-05-25T14:47:07.693Z,22.10
2019-05-25T14:49:38.717Z,21.80
2019-05-25T14:52:09.759Z,21.40
2019-05-25T14:54:40.837Z,21.10
2019-05-25T14:57:11.801Z,20.90
2019-05-25T14:59:42.930Z,20.70
2019-05-25T15:02:13.902Z,20.60
2019-05-25T15:04:44.960Z,20.20
2019-05-25T15:07:16.097Z,19.60
2019-05-25T15:09:47.236Z,19.00
2019-05-25T15:12:18.265Z,18.50
2019-05-25T15:14:49.273Z,18.30
2019-05-25T15:17:20.476Z,18.10
2019-05-25T15:19:51.432Z,17.90
2019-05-25T15:22:22.419Z,17.60
2019-05-25T15:24:53.372Z,17.40
2019-05-25T15:27:24.355Z,17.10
2019-05-25T15:29:55.318Z,16.80
2019-05-25T15:32:27.637Z,16.60
2019-05-25T15:34:58.733Z,16.50
2019-05-25T15:37:29.766Z,16.40
2019-05-25T15:40:00.726Z,16.50
2019-05-25T15:42:31.896Z,16.60
2019-05-25T15:45:02.876Z,16.70
2019-05-25T15:47:34.998Z,16.70
2019-05-25T15:50:11.461Z,16.70
2019-05-25T15:52:42.482Z,16.70
2019-05-25T15:55:13.783Z,16.80
2019-05-25T15:57:44.896Z,16.80
2019-05-25T16:00:18.646Z,16.70
2019-05-25T16:02:49.619Z,16.60
2019-05-25T16:05:21.508Z,16.50
2019-05-25T16:07:53.390Z,16.40
2019-05-25T16:10:24.437Z,16.50
2019-05-25T16:12:58.958Z,16.40
2019-05-25T16:15:41.272Z,16.30
2019-05-25T16:18:10.989Z,16.40
2019-05-25T16:20:43.210Z,16.30
2019-05-25T16:23:14.262Z,16.10
2019-05-25T16:25:45.283Z,16.10
2019-05-25T16:28:16.245Z,16.10
2019-05-25T16:30:47.547Z,16.30
2019-05-25T16:33:18.491Z,16.40
2019-05-25T16:35:49.476Z,16.40
2019-05-25T16:38:23.670Z,16.40
2019-05-25T16:40:56.216Z,16.50
2019-05-25T16:43:27.228Z,16.50
2019-05-25T16:45:58.212Z,16.40
2019-05-25T16:48:29.217Z,16.30
2019-05-25T16:51:00.276Z,16.20
2019-05-25T16:53:31.298Z,16.20
2019-05-25T16:56:02.290Z,16.30
2019-05-25T16:58:33.243Z,16.40
2019-05-25T17:01:04.240Z,16.50
2019-05-25T17:03:35.762Z,16.50
2019-05-25T17:06:06.746Z,16.40
2019-05-25T17:08:37.768Z,16.30
2019-05-25T17:11:08.749Z,16.20
2019-05-25T17:13:39.809Z,16.20
2019-05-25T17:16:10.891Z,16.20
2019-05-25T17:18:41.949Z,16.20
2019-05-25T17:21:13.212Z,16.30
2019-05-25T17:23:44.422Z,16.30
2019-05-25T17:26:15.577Z,16.30
2019-05-25T17:30:42.761Z,16.30
2019-05-25T17:33:14.897Z,16.30
2019-05-25T17:35:46.078Z,16.30
2019-05-25T17:38:17.109Z,16.30
2019-05-25T17:40:48.117Z,16.30
2019-05-25T17:43:19.545Z,16.30
2019-05-25T17:45:50.609Z,16.30
2019-05-25T17:48:21.884Z,16.40
2019-05-25T17:50:52.870Z,16.30
2019-05-25T17:53:23.923Z,16.20
2019-05-25T17:55:55.101Z,16.10
2019-05-25T17:58:26.153Z,16.00
2019-05-25T18:00:57.164Z,16.00
2019-05-25T18:03:28.178Z,16.00
2019-05-25T18:05:59.114Z,16.00
2019-05-25T18:08:30.176Z,15.90
2019-05-25T18:11:01.253Z,15.90
2019-05-25T18:13:37.967Z,16.10
2019-05-25T18:16:14.949Z,16.20
2019-05-25T18:18:45.949Z,16.00
2019-05-25T18:21:16.921Z,15.90
2019-05-25T18:23:48.000Z,15.70
2019-05-25T18:26:19.107Z,15.60
2019-05-25T18:28:50.110Z,15.50
2019-05-25T18:31:21.138Z,15.40
2019-05-25T18:33:52.172Z,15.50
2019-05-25T18:36:23.334Z,15.50
2019-05-25T18:38:54.425Z,15.40
2019-05-25T18:41:25.430Z,15.40
2019-05-25T18:43:57.446Z,15.20
2019-05-25T18:46:28.463Z,15.10
2019-05-25T18:48:59.507Z,15.10
2019-05-25T18:51:30.556Z,15.10
2019-05-25T18:54:01.907Z,15.10
2019-05-25T18:56:33.419Z,15.00
2019-05-25T18:59:04.500Z,15.00
2019-05-25T19:01:35.456Z,15.00
2019-05-25T19:04:06.669Z,15.00
2019-05-25T19:06:37.617Z,15.00
2019-05-25T19:09:10.878Z,14.90
2019-05-25T19:11:41.872Z,14.80
2019-05-25T19:14:12.851Z,14.80
2019-05-25T19:16:43.846Z,14.70
2019-05-25T19:19:14.834Z,14.70
2019-05-25T19:21:45.788Z,14.70
2019-05-25T19:24:16.769Z,14.70
2019-05-25T19:26:47.713Z,14.70
2019-05-25T19:29:18.832Z,14.60
2019-05-25T19:31:51.461Z,14.60
2019-05-25T19:34:22.432Z,14.60
2019-05-25T19:36:53.386Z,14.60
2019-05-25T19:39:24.714Z,14.50
2019-05-25T19:41:55.972Z,14.40
2019-05-25T19:44:27.007Z,14.40
2019-05-25T19:46:57.959Z,14.30
2019-05-25T19:49:29.075Z,14.30
2019-05-25T19:52:00.039Z,14.30
2019-05-25T19:54:31.073Z,14.30
2019-05-25T19:57:02.046Z,14.30
2019-05-25T19:59:33.077Z,14.30
2019-05-25T20:02:04.484Z,14.20
2019-05-25T20:04:35.462Z,14.20
2019-05-25T20:07:06.643Z,14.20
2019-05-25T20:09:37.690Z,14.10
2019-05-25T20:12:08.684Z,14.10
2019-05-25T20:14:39.702Z,14.10
2019-05-25T20:17:10.658Z,14.10
2019-05-25T20:19:41.687Z,14.00
2019-05-25T20:22:12.700Z,14.00
2019-05-25T20:24:43.748Z,14.00
2019-05-25T20:27:14.844Z,14.00
2019-05-25T20:29:45.888Z,14.00
2019-05-25T20:32:16.867Z,13.90
2019-05-25T20:34:47.896Z,14.00
2019-05-25T20:37:18.891Z,13.90
2019-05-25T20:39:49.953Z,13.90
2019-05-25T20:42:21.015Z,13.80
2019-05-25T20:44:52.267Z,13.80
2019-05-25T20:47:23.260Z,13.70
2019-05-25T20:49:54.204Z,13.60
2019-05-25T20:52:25.183Z,13.50
2019-05-25T20:54:56.275Z,13.40
2019-05-25T20:57:27.290Z,13.30
2019-05-25T20:59:58.422Z,13.20
2019-05-25T21:02:29.648Z,13.20
2019-05-25T21:05:00.688Z,13.20
2019-05-25T21:07:31.712Z,13.20
2019-05-25T21:10:03.199Z,13.10
2019-05-25T21:12:35.191Z,13.10
2019-05-25T21:15:10.662Z,13.00
2019-05-25T21:17:41.651Z,13.00
2019-05-25T21:20:13.222Z,12.90
2019-05-25T21:22:44.204Z,12.80
2019-05-25T21:25:15.483Z,12.80
2019-05-25T21:27:46.836Z,12.70
2019-05-25T21:30:18.049Z,12.70
2019-05-25T21:32:49.220Z,12.70
2019-05-25T21:35:20.323Z,12.60
2019-05-25T21:37:51.398Z,12.60
2019-05-25T21:40:22.370Z,12.60
2019-05-25T21:42:53.408Z,12.60
2019-05-25T21:45:24.359Z,12.60
2019-05-25T21:47:56.449Z,12.60
2019-05-25T21:50:28.839Z,12.60
2019-05-25T21:53:00.881Z,12.60
2019-05-25T21:55:32.921Z,12.60
2019-05-25T21:58:04.081Z,12.70
2019-05-25T22:00:36.768Z,12.70
2019-05-25T22:03:08.058Z,12.70
2019-05-25T22:05:39.006Z,12.70
2019-05-25T22:08:09.999Z,12.70
2019-05-25T22:10:40.954Z,12.70
2019-05-25T22:13:25.307Z,12.80
2019-05-25T22:15:44.610Z,12.80
2019-05-25T22:18:15.626Z,12.90
2019-05-25T22:20:46.763Z,12.90
2019-05-25T22:23:17.746Z,12.90
2019-05-25T22:25:48.816Z,12.90
2019-05-25T22:28:19.758Z,12.90
2019-05-25T22:30:50.804Z,12.90
2019-05-25T22:33:21.799Z,12.90
2019-05-25T22:35:52.768Z,12.90
2019-05-25T22:38:23.816Z,12.90
2019-05-25T22:40:54.816Z,13.00
2019-05-25T22:43:25.801Z,12.90
2019-05-25T22:45:56.835Z,12.90
2019-05-25T22:48:27.823Z,12.80
2019-05-25T22:50:58.781Z,12.80
2019-05-25T22:53:29.779Z,12.70
2019-05-25T22:56:00.843Z,12.70
2019-05-25T22:58:31.831Z,12.70
2019-05-25T23:01:02.872Z,12.60
2019-05-25T23:03:33.951Z,12.50
2019-05-25T23:06:04.966Z,12.50
2019-05-25T23:08:36.253Z,12.50
2019-05-25T23:11:07.308Z,12.40
2019-05-25T23:13:38.305Z,12.30
2019-05-25T23:16:10.831Z,12.20
2019-05-25T23:18:41.849Z,12.30
2019-05-25T23:21:12.891Z,12.20
2019-05-25T23:23:43.875Z,12.20
2019-05-25T23:26:14.909Z,12.10
2019-05-25T23:28:45.953Z,12.10
2019-05-25T23:31:16.871Z,12.00
2019-05-25T23:33:47.859Z,12.10
2019-05-25T23:36:18.817Z,12.00
2019-05-25T23:38:49.804Z,12.00
2019-05-25T23:41:20.762Z,12.00
2019-05-25T23:43:51.815Z,12.10
2019-05-25T23:46:22.972Z,12.10
2019-05-25T23:48:54.132Z,12.00
2019-05-25T23:51:25.172Z,12.10
2019-05-25T23:53:56.244Z,12.10
2019-05-25T23:56:27.288Z,12.10
2019-05-25T23:58:58.444Z,12.10
